createdAt,value
2024-02-26T00:00:48.650Z,8.9
2024-02-26T00:01:50.197Z,5.4
2024-02-26T00:02:52.264Z,8.4
2024-02-26T00:03:54.365Z,7.2
2024-02-26T00:04:56.156Z,4
2024-02-26T00:05:58.508Z,6.2
2024-02-26T00:07:01.038Z,7.5
2024-02-26T00:08:06.739Z,4.3
2024-02-26T00:09:08.794Z,6.4
2024-02-26T00:10:10.744Z,8.9
2024-02-26T00:11:12.908Z,6.6
2024-02-26T00:12:15.100Z,5
2024-02-26T00:13:16.879Z,8.2
2024-02-26T00:14:18.541Z,4.5
2024-02-26T00:15:20.654Z,6.3
2024-02-26T00:16:22.324Z,6.1
2024-02-26T00:17:24.007Z,3.4
2024-02-26T00:18:26.407Z,6.2
2024-02-26T00:19:29.119Z,5.2
2024-02-26T00:20:31.020Z,4.4
2024-02-26T00:21:32.711Z,4.4
2024-02-26T00:22:34.289Z,4.5
2024-02-26T00:23:35.794Z,4.2
2024-02-26T00:24:37.334Z,6
2024-02-26T00:25:38.840Z,5.7
2024-02-26T00:26:40.859Z,5.1
2024-02-26T00:27:43.137Z,5.9
2024-02-26T00:28:44.742Z,4.4
2024-02-26T00:29:47.034Z,6.4
2024-02-26T00:30:48.710Z,5.3
2024-02-26T00:31:50.215Z,6.1
2024-02-26T00:32:52.301Z,5.5
2024-02-26T00:33:55.791Z,5.7
2024-02-26T00:34:58.325Z,5.8
2024-02-26T00:36:00.333Z,4.7
2024-02-26T00:37:02.319Z,7.4
2024-02-26T00:38:03.906Z,4.3
2024-02-26T00:39:06.189Z,4.6
2024-02-26T00:40:08.183Z,6.8
2024-02-26T00:41:10.026Z,4.8
2024-02-26T00:42:12.011Z,5
2024-02-26T00:43:14.046Z,3.7
2024-02-26T00:44:15.668Z,4.9
2024-02-26T00:45:18.131Z,5.7
2024-02-26T00:46:20.065Z,11.2
2024-02-26T00:47:21.606Z,4.1
2024-02-26T00:48:24.471Z,4.2
2024-02-26T00:49:26.604Z,5.4
2024-02-26T00:50:28.366Z,5.4
2024-02-26T00:51:30.679Z,4.8
2024-02-26T00:52:32.541Z,2.2
2024-02-26T00:53:34.311Z,4
2024-02-26T00:54:35.915Z,3.8
2024-02-26T00:55:37.470Z,5
2024-02-26T00:56:39.403Z,4.7
2024-02-26T00:57:41.143Z,2.4
2024-02-26T00:58:42.797Z,4.2
2024-02-26T00:59:44.857Z,3
2024-02-26T01:00:46.823Z,3.1
2024-02-26T01:01:48.974Z,3.4
2024-02-26T01:02:51.317Z,4.9
2024-02-26T01:03:54.034Z,3.6
2024-02-26T01:04:56.559Z,3.7
2024-02-26T01:06:01.529Z,3.8
2024-02-26T01:07:05.114Z,5
2024-02-26T01:08:08.012Z,4.2
2024-02-26T01:09:10.643Z,2.9
2024-02-26T01:10:12.461Z,7
2024-02-26T01:11:14.461Z,2.3
2024-02-26T01:12:16.873Z,2.4
2024-02-26T01:13:18.668Z,4.2
2024-02-26T01:14:20.269Z,4.2
2024-02-26T01:15:22.152Z,3.4
2024-02-26T01:16:24.005Z,3.9
2024-02-26T01:17:25.957Z,3.9
2024-02-26T01:18:28.874Z,6.3
2024-02-26T01:19:31.432Z,4.5
2024-02-26T01:20:33.244Z,4.4
2024-02-26T01:21:34.864Z,3.9
2024-02-26T01:22:36.500Z,2.7
2024-02-26T01:23:39.001Z,3.9
2024-02-26T01:24:40.734Z,3.7
2024-02-26T01:25:42.432Z,4.3
2024-02-26T01:26:44.542Z,3.1
2024-02-26T01:27:46.102Z,6.4
2024-02-26T01:28:47.629Z,2.9
2024-02-26T01:29:49.589Z,8.3
2024-02-26T01:30:51.362Z,5.4
2024-02-26T01:31:52.948Z,4.1
2024-02-26T01:32:55.710Z,4.9
2024-02-26T01:33:58.766Z,4.6
2024-02-26T01:35:00.664Z,13.6
2024-02-26T01:36:02.866Z,4.6
2024-02-26T01:37:04.749Z,3
2024-02-26T01:38:06.270Z,2.9
2024-02-26T01:39:08.510Z,3.8
2024-02-26T01:40:10.404Z,3
2024-02-26T01:41:12.005Z,4.2
2024-02-26T01:42:14.045Z,3.8
2024-02-26T01:43:15.907Z,4.8
2024-02-26T01:44:17.468Z,4.3
2024-02-26T01:45:19.643Z,3
2024-02-26T01:46:22.089Z,4.6
2024-02-26T01:47:23.694Z,4.6
2024-02-26T01:48:26.031Z,3.8
2024-02-26T01:49:28.705Z,3
2024-02-26T01:50:30.497Z,6
2024-02-26T01:51:32.001Z,4.6
2024-02-26T01:52:33.643Z,3.4
2024-02-26T01:53:35.205Z,2.9
2024-02-26T01:54:36.886Z,6.2
2024-02-26T01:55:38.581Z,3.8
2024-02-26T01:56:40.396Z,2.3
2024-02-26T01:57:42.039Z,3.8
2024-02-26T01:58:43.841Z,4.8
2024-02-26T01:59:45.808Z,2.6
2024-02-26T02:00:49.016Z,3.9
2024-02-26T02:01:50.706Z,11.4
2024-02-26T02:02:52.904Z,5.5
2024-02-26T02:03:54.925Z,4
2024-02-26T02:04:56.844Z,3.3
2024-02-26T02:05:59.362Z,3.4
2024-02-26T02:07:02.177Z,5.1
2024-02-26T02:08:04.145Z,5.1
2024-02-26T02:09:05.917Z,6.2
2024-02-26T02:10:07.755Z,4.4
2024-02-26T02:11:09.859Z,4.9
2024-02-26T02:12:12.090Z,4.3
2024-02-26T02:13:13.751Z,4.6
2024-02-26T02:14:15.249Z,4.2
2024-02-26T02:15:17.358Z,5.7
2024-02-26T02:16:19.160Z,2.8
2024-02-26T02:17:20.689Z,5.4
2024-02-26T02:18:23.059Z,3
2024-02-26T02:19:25.321Z,3
2024-02-26T02:20:26.974Z,3.7
2024-02-26T02:21:28.947Z,4
2024-02-26T02:22:30.705Z,3.7
2024-02-26T02:23:32.213Z,4.4
2024-02-26T02:24:34.046Z,2.8
2024-02-26T02:25:35.629Z,8.1
2024-02-26T02:26:37.127Z,5.2
2024-02-26T02:27:39.013Z,4.6
2024-02-26T02:28:40.607Z,4.6
2024-02-26T02:29:42.612Z,4.2
2024-02-26T02:30:44.142Z,12.6
2024-02-26T02:31:45.891Z,4.5
2024-02-26T02:32:48.178Z,5.4
2024-02-26T02:33:51.399Z,3.5
2024-02-26T02:34:53.916Z,10.1
2024-02-26T02:35:56.410Z,3.4
2024-02-26T02:36:58.421Z,7.6
2024-02-26T02:38:00.192Z,5.9
2024-02-26T02:39:02.342Z,7.4
2024-02-26T02:40:04.165Z,4.5
2024-02-26T02:41:05.970Z,2.7
2024-02-26T02:42:07.913Z,4.2
2024-02-26T02:43:09.687Z,5.8
2024-02-26T02:44:11.234Z,4
2024-02-26T02:45:13.355Z,4.7
2024-02-26T02:46:15.299Z,5.4
2024-02-26T02:47:17.091Z,5.5
2024-02-26T02:48:19.673Z,4.8
2024-02-26T02:49:22.302Z,4
2024-02-26T02:50:24.142Z,4.6
2024-02-26T02:51:26.168Z,3
2024-02-26T02:52:27.872Z,4.8
2024-02-26T02:53:29.430Z,7.4
2024-02-26T02:54:31.786Z,5
2024-02-26T02:55:33.446Z,3.5
2024-02-26T02:56:35.012Z,4.5
2024-02-26T02:57:36.704Z,4.2
2024-02-26T02:58:38.339Z,7
2024-02-26T02:59:40.889Z,4.4
2024-02-26T03:00:43.362Z,2.6
2024-02-26T03:01:45.206Z,4.2
2024-02-26T03:02:47.422Z,3.8
2024-02-26T03:03:49.599Z,3
2024-02-26T03:04:51.569Z,3.3
2024-02-26T03:05:53.958Z,3.9
2024-02-26T03:06:56.300Z,6.3
2024-02-26T03:07:58.070Z,3.8
2024-02-26T03:08:59.711Z,5.3
2024-02-26T03:10:01.679Z,3.7
2024-02-26T03:11:03.581Z,2.2
2024-02-26T03:12:05.844Z,5
2024-02-26T03:13:07.673Z,3.6
2024-02-26T03:14:09.246Z,5.8
2024-02-26T03:15:11.318Z,5.9
2024-02-26T03:16:13.627Z,3.7
2024-02-26T03:17:15.351Z,6.3
2024-02-26T03:18:17.858Z,4.5
2024-02-26T03:19:20.773Z,2.6
2024-02-26T03:20:22.556Z,6.6
2024-02-26T03:21:24.654Z,3.4
2024-02-26T03:22:26.478Z,5
2024-02-26T03:23:27.983Z,2.7
2024-02-26T03:24:30.055Z,4.5
2024-02-26T03:25:31.782Z,4.1
2024-02-26T03:26:33.310Z,7.3
2024-02-26T03:27:34.901Z,4.6
2024-02-26T03:28:36.421Z,5.2
2024-02-26T03:29:37.938Z,4.5
2024-02-26T03:30:39.476Z,3.5
2024-02-26T03:31:41.005Z,3
2024-02-26T03:32:43.540Z,4.8
2024-02-26T03:33:46.636Z,4.4
2024-02-26T03:34:49.588Z,3.7
2024-02-26T03:35:51.931Z,2.2
2024-02-26T03:36:53.476Z,4.6
2024-02-26T03:37:55.008Z,2.8
2024-02-26T03:38:56.729Z,4.9
2024-02-26T03:39:58.805Z,4.6
2024-02-26T03:41:00.972Z,5.9
2024-02-26T03:42:02.976Z,3.6
2024-02-26T03:43:04.658Z,3.4
2024-02-26T03:44:06.316Z,4.5
2024-02-26T03:45:08.581Z,6.1
2024-02-26T03:46:10.368Z,4.5
2024-02-26T03:47:12.042Z,4.1
2024-02-26T03:48:14.771Z,4.5
2024-02-26T03:49:17.250Z,6.3
2024-02-26T03:50:19.194Z,2.7
2024-02-26T03:51:21.315Z,4.9
2024-02-26T03:52:23.030Z,5.7
2024-02-26T03:53:24.584Z,5.2
2024-02-26T03:54:26.759Z,2
2024-02-26T03:55:28.489Z,6.8
2024-02-26T03:56:30.030Z,14.8
2024-02-26T03:57:31.626Z,4.5
2024-02-26T03:58:33.352Z,3.2
2024-02-26T03:59:34.875Z,3.5
2024-02-26T04:00:37.429Z,3.7
2024-02-26T04:01:39.327Z,5.3
2024-02-26T04:02:41.505Z,3.7
2024-02-26T04:03:43.520Z,7.3
2024-02-26T04:04:46.057Z,3.7
2024-02-26T04:05:48.775Z,3.9
2024-02-26T04:06:51.317Z,6.1
2024-02-26T04:07:53.032Z,5.7
2024-02-26T04:08:54.931Z,4
2024-02-26T04:09:56.465Z,4.4
2024-02-26T04:10:58.415Z,3.6
2024-02-26T04:12:00.631Z,6.4
2024-02-26T04:13:02.355Z,5.2
2024-02-26T04:14:03.929Z,5.9
2024-02-26T04:15:06.174Z,3.5
2024-02-26T04:16:08.070Z,5
2024-02-26T04:17:09.563Z,4.1
2024-02-26T04:18:12.853Z,4.4
2024-02-26T04:19:15.682Z,4.5
2024-02-26T04:20:17.953Z,3.4
2024-02-26T04:21:20.264Z,5.4
2024-02-26T04:22:22.273Z,5.7
2024-02-26T04:23:24.539Z,3.1
2024-02-26T04:24:26.672Z,7.1
2024-02-26T04:25:28.476Z,4.4
2024-02-26T04:26:30.027Z,4
2024-02-26T04:27:31.628Z,5.5
2024-02-26T04:28:33.241Z,4.6
2024-02-26T04:29:35.012Z,5.9
2024-02-26T04:30:37.022Z,5.3
2024-02-26T04:31:38.912Z,7.1
2024-02-26T04:32:40.914Z,6.8
2024-02-26T04:33:43.789Z,5
2024-02-26T04:34:46.129Z,6.9
2024-02-26T04:35:48.436Z,12.2
2024-02-26T04:36:50.210Z,5.3
2024-02-26T04:37:51.970Z,5.1
2024-02-26T04:38:53.931Z,4.5
2024-02-26T04:39:55.727Z,4.8
2024-02-26T04:40:57.261Z,5.2
2024-02-26T04:41:59.070Z,3.6
2024-02-26T04:43:00.789Z,3.6
2024-02-26T04:44:02.414Z,4.4
2024-02-26T04:45:04.674Z,3.6
2024-02-26T04:46:06.344Z,6.2
2024-02-26T04:47:07.955Z,5.2
2024-02-26T04:48:10.888Z,4.4
2024-02-26T04:49:14.100Z,3.5
2024-02-26T04:50:15.886Z,8.3
2024-02-26T04:51:18.108Z,1.9
2024-02-26T04:52:20.227Z,9.9
2024-02-26T04:53:27.807Z,3.9
2024-02-26T04:54:29.949Z,4.6
2024-02-26T04:55:31.666Z,6.2
2024-02-26T04:56:33.529Z,4.2
2024-02-26T04:57:35.777Z,5.8
2024-02-26T04:58:37.292Z,7.6
2024-02-26T04:59:38.887Z,7.3
2024-02-26T05:00:40.947Z,7.3
2024-02-26T05:01:43.739Z,6.6
2024-02-26T05:02:46.565Z,5
2024-02-26T05:03:49.150Z,5.8
2024-02-26T05:04:50.930Z,6
2024-02-26T05:05:53.377Z,6.7
2024-02-26T05:06:56.831Z,5.5
2024-02-26T05:07:58.701Z,4.5
2024-02-26T05:09:00.829Z,5.4
2024-02-26T05:10:02.611Z,4.6
2024-02-26T05:11:04.608Z,3.1
2024-02-26T05:12:07.084Z,4.6
2024-02-26T05:13:09.006Z,8.1
2024-02-26T05:14:10.545Z,6.2
2024-02-26T05:15:12.751Z,9.4
2024-02-26T05:16:14.558Z,4.1
2024-02-26T05:17:16.207Z,6.2
2024-02-26T05:18:19.009Z,7
2024-02-26T05:19:21.782Z,3.7
2024-02-26T05:20:23.542Z,5.4
2024-02-26T05:21:25.879Z,6.2
2024-02-26T05:22:27.755Z,4.1
2024-02-26T05:23:29.452Z,5.6
2024-02-26T05:24:31.358Z,7
2024-02-26T05:25:33.263Z,6.8
2024-02-26T05:26:34.776Z,6.7
2024-02-26T05:27:36.302Z,5.7
2024-02-26T05:28:38.223Z,3.6
2024-02-26T05:29:39.907Z,4.1
2024-02-26T05:30:41.950Z,6.1
2024-02-26T05:31:43.835Z,3.6
2024-02-26T05:32:46.463Z,6.5
2024-02-26T05:34:51.338Z,5
2024-02-26T05:35:53.632Z,8.7
2024-02-26T05:36:55.646Z,5.3
2024-02-26T05:37:57.279Z,9.4
2024-02-26T05:38:59.308Z,7.5
2024-02-26T05:40:01.111Z,6.7
2024-02-26T05:41:02.668Z,4.9
2024-02-26T05:42:04.564Z,6.9
2024-02-26T05:43:06.198Z,6.8
2024-02-26T05:44:07.842Z,8.1
2024-02-26T05:45:09.906Z,9.6
2024-02-26T05:46:11.799Z,10.6
2024-02-26T05:47:13.378Z,10.6
2024-02-26T05:48:15.928Z,13.8
2024-02-26T05:49:18.735Z,9.3
2024-02-26T05:50:20.597Z,11.6
2024-02-26T05:51:23.340Z,11.2
2024-02-26T05:52:27.756Z,7.9
2024-02-26T05:53:29.331Z,7.9
2024-02-26T05:54:31.534Z,8.5
2024-02-26T05:55:33.367Z,6.8
2024-02-26T05:56:35.094Z,7.6
2024-02-26T05:57:37.645Z,6.5
2024-02-26T05:58:39.586Z,9.4
2024-02-26T05:59:41.092Z,3.9
2024-02-26T06:00:43.938Z,4.2
2024-02-26T06:01:46.061Z,4.7
2024-02-26T06:02:48.161Z,6.3
2024-02-26T06:03:50.356Z,5.4
2024-02-26T06:04:52.340Z,4.4
2024-02-26T06:05:54.802Z,7.1
2024-02-26T06:06:57.088Z,4.2
2024-02-26T06:07:58.857Z,12.1
2024-02-26T06:09:01.235Z,8
2024-02-26T06:10:02.995Z,3
2024-02-26T06:11:05.030Z,5.5
2024-02-26T06:12:07.200Z,4.4
2024-02-26T06:13:09.005Z,8.7
2024-02-26T06:14:10.548Z,5.5
2024-02-26T06:15:12.985Z,4.6
2024-02-26T06:16:14.927Z,4.9
2024-02-26T06:17:16.423Z,5.1
2024-02-26T06:18:19.121Z,5.8
2024-02-26T06:19:21.689Z,5.8
2024-02-26T06:20:23.558Z,5.8
2024-02-26T06:21:25.981Z,7.2
2024-02-26T06:22:27.730Z,4.6
2024-02-26T06:23:29.233Z,6.1
2024-02-26T06:24:31.337Z,6.2
2024-02-26T06:25:33.170Z,5.6
2024-02-26T06:26:35.070Z,6.5
2024-02-26T06:27:36.682Z,7.5
2024-02-26T06:28:38.186Z,7.2
2024-02-26T06:29:39.693Z,6.8
2024-02-26T06:30:41.736Z,6.3
2024-02-26T06:31:43.772Z,8.8
2024-02-26T06:32:46.509Z,7.7
2024-02-26T06:33:49.663Z,6.5
2024-02-26T06:34:52.529Z,4.7
2024-02-26T06:35:54.524Z,7.3
2024-02-26T06:36:56.427Z,7.7
2024-02-26T06:37:57.959Z,7.5
2024-02-26T06:38:59.986Z,7
2024-02-26T06:40:02.050Z,8
2024-02-26T06:41:03.793Z,9.5
2024-02-26T06:42:05.848Z,6.2
2024-02-26T06:43:07.803Z,7.7
2024-02-26T06:44:09.451Z,6.1
2024-02-26T06:45:11.509Z,6.7
2024-02-26T06:46:13.258Z,7.8
2024-02-26T06:47:14.755Z,5.9
2024-02-26T06:48:17.011Z,6.9
2024-02-26T06:49:19.969Z,9.2
2024-02-26T06:50:21.875Z,10.8
2024-02-26T06:51:24.733Z,9.5
2024-02-26T06:52:26.462Z,8
2024-02-26T06:53:28.175Z,10
2024-02-26T06:54:30.433Z,7.8
2024-02-26T06:55:32.316Z,8
2024-02-26T06:56:33.955Z,9.8
2024-02-26T06:57:35.575Z,10.2
2024-02-26T06:58:37.722Z,13.1
2024-02-26T06:59:40.292Z,10.3
2024-02-26T07:00:43.386Z,10.5
2024-02-26T07:01:45.219Z,8.3
2024-02-26T07:02:47.439Z,9.1
2024-02-26T07:03:50.574Z,10.8
2024-02-26T07:04:52.569Z,8.1
2024-02-26T07:05:54.931Z,7.7
2024-02-26T07:06:57.548Z,6.9
2024-02-26T07:07:59.352Z,10.7
2024-02-26T07:09:01.427Z,10.7
2024-02-26T07:10:03.262Z,7.9
2024-02-26T07:11:05.256Z,12.6
2024-02-26T07:12:07.286Z,8.3
2024-02-26T07:13:08.868Z,15.7
2024-02-26T07:14:10.362Z,8.2
2024-02-26T07:15:12.609Z,10.3
2024-02-26T07:16:14.429Z,8.4
2024-02-26T07:17:15.939Z,9.8
2024-02-26T07:18:18.656Z,14.3
2024-02-26T07:19:21.701Z,8.7
2024-02-26T07:20:23.522Z,14.6
2024-02-26T07:21:25.919Z,9.9
2024-02-26T07:22:27.603Z,9
2024-02-26T07:23:29.129Z,10.1
2024-02-26T07:24:31.143Z,9.2
2024-02-26T07:25:32.873Z,9.8
2024-02-26T07:26:34.544Z,8.3
2024-02-26T07:27:36.366Z,8.6
2024-02-26T07:28:38.086Z,8.2
2024-02-26T07:29:39.645Z,8.3
2024-02-26T07:30:41.162Z,9.2
2024-02-26T07:31:43.437Z,10.8
2024-02-26T07:32:52.398Z,11.1
2024-02-26T07:33:55.108Z,16.5
2024-02-26T07:34:57.506Z,16.1
2024-02-26T07:35:59.547Z,11.4
2024-02-26T07:37:01.333Z,9.2
2024-02-26T07:38:03.081Z,9.6
2024-02-26T07:39:05.204Z,9.8
2024-02-26T07:40:07.012Z,9.4
2024-02-26T07:41:08.578Z,6.1
2024-02-26T07:42:11.052Z,7.9
2024-02-26T07:43:13.059Z,7.7
2024-02-26T07:44:14.756Z,12
2024-02-26T07:45:16.671Z,14
2024-02-26T07:46:18.720Z,9.3
2024-02-26T07:47:20.269Z,7.6
2024-02-26T07:48:22.673Z,8.1
2024-02-26T07:49:25.490Z,7.5
2024-02-26T07:50:27.308Z,9.1
2024-02-26T07:51:29.605Z,8.1
2024-02-26T07:52:31.358Z,13.1
2024-02-26T07:53:32.847Z,8.2
2024-02-26T07:54:35.016Z,18.4
2024-02-26T07:55:36.977Z,14
2024-02-26T07:56:38.452Z,10.1
2024-02-26T07:57:39.980Z,8.3
2024-02-26T07:58:41.696Z,12.7
2024-02-26T07:59:44.009Z,13.2
2024-02-26T08:00:45.798Z,19.5
2024-02-26T08:01:59.976Z,11.5
2024-02-26T08:03:02.974Z,12.1
2024-02-26T08:04:06.020Z,9.3
2024-02-26T08:05:08.109Z,16.1
2024-02-26T08:06:10.485Z,14
2024-02-26T08:07:13.036Z,11.4
2024-02-26T08:08:15.009Z,8.5
2024-02-26T08:09:17.395Z,12.8
2024-02-26T08:10:19.177Z,18
2024-02-26T08:11:21.331Z,12.6
2024-02-26T08:12:23.563Z,12
2024-02-26T08:13:25.254Z,11.8
2024-02-26T08:14:27.587Z,13.2
2024-02-26T08:15:29.761Z,10.6
2024-02-26T08:16:37.857Z,11.3
2024-02-26T08:17:39.962Z,7.9
2024-02-26T08:19:45.413Z,11.5
2024-02-26T08:20:47.373Z,13.9
2024-02-26T08:21:49.173Z,12.9
2024-02-26T08:22:50.744Z,12
2024-02-26T08:23:52.643Z,12.7
2024-02-26T08:24:54.293Z,11.1
2024-02-26T08:25:55.827Z,16.5
2024-02-26T08:26:57.751Z,9.2
2024-02-26T08:27:59.426Z,14.4
2024-02-26T08:29:01.260Z,14.4
2024-02-26T08:30:03.755Z,22.2
2024-02-26T08:31:05.756Z,12.5
2024-02-26T08:32:07.384Z,9.5
2024-02-26T08:33:10.028Z,10
2024-02-26T08:34:13.039Z,10
2024-02-26T08:35:15.496Z,10.5
2024-02-26T08:36:17.901Z,10.5
2024-02-26T08:37:19.792Z,11.4
2024-02-26T08:38:21.500Z,10.6
2024-02-26T08:39:23.358Z,11.2
2024-02-26T08:40:25.265Z,9.7
2024-02-26T08:41:26.814Z,9.1
2024-02-26T08:42:28.685Z,10.7
2024-02-26T08:43:30.569Z,11.4
2024-02-26T08:44:32.317Z,10.2
2024-02-26T08:45:35.152Z,11.3
2024-02-26T08:46:37.008Z,16.6
2024-02-26T08:47:39.418Z,12.4
2024-02-26T08:48:42.682Z,10.8
2024-02-26T08:49:45.627Z,11.5
2024-02-26T08:50:47.635Z,8.5
2024-02-26T08:51:49.394Z,11.1
2024-02-26T08:52:50.866Z,13.2
2024-02-26T08:53:52.908Z,12.4
2024-02-26T08:54:54.564Z,13.8
2024-02-26T08:55:56.043Z,8.9
2024-02-26T08:56:59.088Z,12.7
2024-02-26T08:58:01.084Z,11.5
2024-02-26T08:59:02.613Z,12.4
2024-02-26T09:00:04.818Z,8.6
2024-02-26T09:01:07.348Z,12.3
2024-02-26T09:02:09.496Z,11.8
2024-02-26T09:03:11.533Z,12.1
2024-02-26T09:04:13.935Z,7.4
2024-02-26T09:05:15.602Z,12.9
2024-02-26T09:06:18.236Z,9.7
2024-02-26T09:07:20.435Z,11
2024-02-26T09:08:22.175Z,12.1
2024-02-26T09:09:24.261Z,17.8
2024-02-26T09:10:25.845Z,13.6
2024-02-26T09:11:27.833Z,12.7
2024-02-26T09:12:30.138Z,16.1
2024-02-26T09:13:32.039Z,11.3
2024-02-26T09:14:33.677Z,13.6
2024-02-26T09:15:36.242Z,13.6
2024-02-26T09:16:37.866Z,14.3
2024-02-26T09:17:40.134Z,10.3
2024-02-26T09:18:42.996Z,10.6
2024-02-26T09:19:45.688Z,18.9
2024-02-26T09:20:48.010Z,12.5
2024-02-26T09:21:49.665Z,12.1
2024-02-26T09:22:51.148Z,11.9
2024-02-26T09:23:53.231Z,14.9
2024-02-26T09:24:55.360Z,11.2
2024-02-26T09:25:56.850Z,12.2
2024-02-26T09:26:58.818Z,11
2024-02-26T09:28:00.430Z,11.9
2024-02-26T09:29:02.271Z,14.5
2024-02-26T09:30:05.171Z,10.5
2024-02-26T09:31:07.176Z,20.6
2024-02-26T09:32:09.052Z,11.3
2024-02-26T09:33:11.585Z,15.4
2024-02-26T09:34:14.168Z,12.5
2024-02-26T09:35:17.103Z,9.6
2024-02-26T09:36:19.748Z,11.7
2024-02-26T09:37:23.704Z,13.8
2024-02-26T09:38:25.263Z,16.2
2024-02-26T09:39:27.114Z,12.7
2024-02-26T09:40:29.270Z,14.9
2024-02-26T09:41:30.888Z,16.2
2024-02-26T09:42:32.901Z,12.2
2024-02-26T09:43:34.637Z,11.2
2024-02-26T09:44:36.141Z,11.1
2024-02-26T09:45:38.242Z,11.3
2024-02-26T09:46:40.374Z,10
2024-02-26T09:47:42.688Z,8.8
2024-02-26T09:48:45.704Z,13.3
2024-02-26T09:49:48.443Z,11
2024-02-26T09:50:50.604Z,14.9
2024-02-26T09:51:52.377Z,13.6
2024-02-26T09:52:53.961Z,12.1
2024-02-26T09:53:56.303Z,14.4
2024-02-26T09:54:57.967Z,13.3
2024-02-26T09:55:59.786Z,10.5
2024-02-26T09:57:06.611Z,13
2024-02-26T09:58:09.706Z,13
2024-02-26T09:59:11.524Z,12.2
2024-02-26T10:00:13.754Z,8.8
2024-02-26T10:01:16.302Z,17.2
2024-02-26T10:02:18.205Z,15.5
2024-02-26T10:03:20.423Z,11.1
2024-02-26T10:04:22.939Z,13.4
2024-02-26T10:05:24.937Z,11.5
2024-02-26T10:06:27.407Z,15.5
2024-02-26T10:07:29.588Z,15.1
2024-02-26T10:08:31.134Z,9.3
2024-02-26T10:09:33.387Z,9.4
2024-02-26T10:10:35.205Z,11.2
2024-02-26T10:11:38.799Z,12.8
2024-02-26T10:12:41.057Z,13.8
2024-02-26T10:13:42.806Z,12.4
2024-02-26T10:14:45.263Z,11.3
2024-02-26T10:15:47.079Z,13.6
2024-02-26T10:16:48.906Z,10.6
2024-02-26T10:17:51.754Z,11.6
2024-02-26T10:19:02.213Z,13.4
2024-02-26T10:20:05.726Z,12
2024-02-26T10:21:07.768Z,11.8
2024-02-26T10:22:09.541Z,12.3
2024-02-26T10:23:11.161Z,11
2024-02-26T10:24:13.229Z,13.3
2024-02-26T10:25:14.812Z,16.8
2024-02-26T10:26:16.569Z,12.9
2024-02-26T10:27:19.138Z,12.7
2024-02-26T10:28:20.952Z,12.2
2024-02-26T10:29:22.595Z,12.6
2024-02-26T10:30:25.754Z,11.4
2024-02-26T10:31:27.599Z,11.3
2024-02-26T10:32:29.097Z,10.2
2024-02-26T10:33:44.359Z,18.1
2024-02-26T10:34:47.001Z,15.3
2024-02-26T10:35:50.029Z,13.7
2024-02-26T10:36:56.696Z,12.4
2024-02-26T10:37:58.947Z,11.6
2024-02-26T10:39:00.791Z,12.2
2024-02-26T10:40:02.585Z,11.7
2024-02-26T10:41:04.142Z,11.7
2024-02-26T10:42:05.867Z,12.6
2024-02-26T10:43:07.920Z,14.8
2024-02-26T10:44:09.660Z,12.2
2024-02-26T10:45:11.928Z,10.9
2024-02-26T10:46:14.519Z,15.4
2024-02-26T10:47:16.110Z,14.8
2024-02-26T10:48:18.845Z,12.3
2024-02-26T10:49:24.300Z,24.3
2024-02-26T10:50:25.944Z,13.7
2024-02-26T10:51:28.653Z,13.7
2024-02-26T10:52:30.481Z,11.2
2024-02-26T10:53:32.567Z,13.9
2024-02-26T10:54:35.225Z,11.7
2024-02-26T10:55:37.475Z,18.2
2024-02-26T10:56:39.377Z,13.3
2024-02-26T10:57:42.802Z,16.9
2024-02-26T10:58:45.128Z,19.7
2024-02-26T10:59:47.343Z,17.2
2024-02-26T11:00:50.521Z,15.9
2024-02-26T11:01:53.462Z,14.2
2024-02-26T11:02:55.713Z,13.8
2024-02-26T11:03:57.947Z,12.1
2024-02-26T11:05:03.215Z,18.2
2024-02-26T11:06:05.750Z,14.4
2024-02-26T11:07:13.003Z,12
2024-02-26T11:08:14.764Z,15.7
2024-02-26T11:09:17.255Z,13.8
2024-02-26T11:10:19.170Z,15.3
2024-02-26T11:11:21.073Z,16.6
2024-02-26T11:12:23.340Z,11.6
2024-02-26T11:13:25.095Z,18.4
2024-02-26T11:14:27.140Z,14.8
2024-02-26T11:15:29.735Z,25
2024-02-26T11:16:31.665Z,16.1
2024-02-26T11:17:33.847Z,16.6
2024-02-26T11:18:36.484Z,13.4
2024-02-26T11:19:40.227Z,19.9
2024-02-26T11:20:42.611Z,17.2
2024-02-26T11:21:44.516Z,13
2024-02-26T11:22:46.768Z,15.3
2024-02-26T11:23:48.689Z,14.5
2024-02-26T11:24:50.297Z,14.8
2024-02-26T11:25:52.005Z,14
2024-02-26T11:26:53.963Z,14.6
2024-02-26T11:27:58.370Z,19.2
2024-02-26T11:28:59.927Z,15.3
2024-02-26T11:30:03.024Z,12.9
2024-02-26T11:31:04.900Z,16.1
2024-02-26T11:32:06.467Z,13.3
2024-02-26T11:33:08.944Z,10.6
2024-02-26T11:34:12.358Z,15.7
2024-02-26T11:35:15.121Z,16.4
2024-02-26T11:36:17.607Z,15.3
2024-02-26T11:37:20.466Z,14.3
2024-02-26T11:38:22.301Z,17.1
2024-02-26T11:39:24.369Z,13.5
2024-02-26T11:40:26.104Z,15.2
2024-02-26T11:41:27.752Z,11.8
2024-02-26T11:42:29.999Z,13.9
2024-02-26T11:43:31.886Z,17.1
2024-02-26T11:44:33.401Z,13.7
2024-02-26T11:45:35.675Z,13.5
2024-02-26T11:46:37.309Z,17.4
2024-02-26T11:47:39.825Z,18.8
2024-02-26T11:48:42.274Z,18.2
2024-02-26T11:49:45.132Z,19
2024-02-26T11:50:47.301Z,17.1
2024-02-26T11:51:49.451Z,15.6
2024-02-26T11:52:51.353Z,14.6
2024-02-26T11:53:53.548Z,16
2024-02-26T11:54:55.828Z,15.4
2024-02-26T11:55:57.379Z,15.2
2024-02-26T11:56:59.316Z,18.1
2024-02-26T11:58:01.016Z,14.6
2024-02-26T11:59:03.611Z,14.7
2024-02-26T12:00:06.153Z,15.1
2024-02-26T12:01:08.648Z,19.5
2024-02-26T12:02:10.254Z,18.2
2024-02-26T12:03:12.075Z,18.4
2024-02-26T12:04:14.163Z,13.3
2024-02-26T12:05:16.458Z,19
2024-02-26T12:06:18.876Z,19.9
2024-02-26T12:07:21.413Z,12.9
2024-02-26T12:08:23.304Z,17.1
2024-02-26T12:09:25.789Z,19.4
2024-02-26T12:10:27.935Z,20.1
2024-02-26T12:11:30.014Z,13.7
2024-02-26T12:12:32.285Z,14.3
2024-02-26T12:13:34.028Z,14
2024-02-26T12:14:36.116Z,17.9
2024-02-26T12:15:38.455Z,17.5
2024-02-26T12:16:40.662Z,16.1
2024-02-26T12:17:42.641Z,18.1
2024-02-26T12:18:45.110Z,22.3
2024-02-26T12:19:47.462Z,17.2
2024-02-26T12:20:49.724Z,16.1
2024-02-26T12:21:51.298Z,17.8
2024-02-26T12:22:53.499Z,16.3
2024-02-26T12:23:55.807Z,12.4
2024-02-26T12:24:57.822Z,15.3
2024-02-26T12:25:59.332Z,15.9
2024-02-26T12:27:01.463Z,12.5
2024-02-26T12:28:03.252Z,17.1
2024-02-26T12:29:04.760Z,15.9
2024-02-26T12:30:06.678Z,16.8
2024-02-26T12:31:08.691Z,21.6
2024-02-26T12:32:10.540Z,12.1
2024-02-26T12:33:12.825Z,11.1
2024-02-26T12:34:15.652Z,15.2
2024-02-26T12:35:18.091Z,12.9
2024-02-26T12:36:20.346Z,11
2024-02-26T12:37:22.092Z,16.2
2024-02-26T12:38:27.440Z,13.8
2024-02-26T12:39:30.136Z,14.1
2024-02-26T12:40:32.362Z,15
2024-02-26T12:41:33.840Z,13.4
2024-02-26T12:42:35.969Z,11.3
2024-02-26T12:43:37.599Z,11.4
2024-02-26T12:44:39.221Z,13.3
2024-02-26T12:45:41.095Z,18.4
2024-02-26T12:46:43.543Z,15.5
2024-02-26T12:47:45.929Z,12.7
2024-02-26T12:48:48.852Z,14.3
2024-02-26T12:49:51.823Z,14.3
2024-02-26T12:50:54.320Z,16.6
2024-02-26T12:51:55.887Z,15.3
2024-02-26T12:52:57.499Z,13.8
2024-02-26T12:53:59.680Z,14.1
2024-02-26T12:55:01.680Z,12.9
2024-02-26T12:56:08.852Z,11.2
2024-02-26T12:57:11.187Z,13
2024-02-26T12:58:13.052Z,16.5
2024-02-26T12:59:14.822Z,14.6
2024-02-26T13:00:17.128Z,13.9
2024-02-26T13:01:19.387Z,12.1
2024-02-26T13:02:21.110Z,16.8
2024-02-26T13:03:24.452Z,11.8
2024-02-26T13:04:26.466Z,13.2
2024-02-26T13:05:28.743Z,16.2
2024-02-26T13:06:31.309Z,18.4
2024-02-26T13:07:33.084Z,15.7
2024-02-26T13:08:34.558Z,15.2
2024-02-26T13:09:37.073Z,15.4
2024-02-26T13:10:38.923Z,12.1
2024-02-26T13:11:41.057Z,19
2024-02-26T13:12:42.639Z,16.8
2024-02-26T13:13:44.337Z,17
2024-02-26T13:14:45.995Z,15.8
2024-02-26T13:15:47.689Z,15.4
2024-02-26T13:16:49.305Z,13.7
2024-02-26T13:17:52.062Z,10.5
2024-02-26T13:18:55.401Z,11
2024-02-26T13:19:58.144Z,16.9
2024-02-26T13:21:00.261Z,13.9
2024-02-26T13:22:01.915Z,14.9
2024-02-26T13:23:03.579Z,11.8
2024-02-26T13:24:05.720Z,17.6
2024-02-26T13:25:07.706Z,18.8
2024-02-26T13:26:09.873Z,13.2
2024-02-26T13:27:12.072Z,16.4
2024-02-26T13:28:14.208Z,17.5
2024-02-26T13:29:15.864Z,16
2024-02-26T13:30:18.298Z,16
2024-02-26T13:31:20.070Z,15.5
2024-02-26T13:32:21.536Z,30.3
2024-02-26T13:33:24.139Z,14.4
2024-02-26T13:34:27.044Z,13.1
2024-02-26T13:35:28.882Z,18.4
2024-02-26T13:36:31.072Z,14
2024-02-26T13:37:32.980Z,16.8
2024-02-26T13:38:34.566Z,15.2
2024-02-26T13:39:43.307Z,12.3
2024-02-26T13:40:45.409Z,18.4
2024-02-26T13:41:47.613Z,13.7
2024-02-26T13:42:49.981Z,14.5
2024-02-26T13:43:51.806Z,13.2
2024-02-26T13:44:53.785Z,10.7
2024-02-26T13:45:56.041Z,15.2
2024-02-26T13:46:57.727Z,20.5
2024-02-26T13:47:59.850Z,16.4
2024-02-26T13:49:02.476Z,24
2024-02-26T13:50:05.397Z,11.9
2024-02-26T13:51:07.338Z,18.4
2024-02-26T13:52:09.049Z,13.1
2024-02-26T13:53:10.598Z,17.7
2024-02-26T13:54:12.783Z,11.6
2024-02-26T13:55:14.712Z,16
2024-02-26T13:56:16.554Z,17.5
2024-02-26T13:57:18.832Z,19.7
2024-02-26T13:58:20.877Z,15.3
2024-02-26T13:59:22.439Z,12.6
2024-02-26T14:00:24.381Z,14
2024-02-26T14:01:26.712Z,18.7
2024-02-26T14:02:28.610Z,14.2
2024-02-26T14:03:30.812Z,12.3
2024-02-26T14:04:33.272Z,13.8
2024-02-26T14:05:34.873Z,20
2024-02-26T14:06:37.722Z,14
2024-02-26T14:07:40.815Z,15
2024-02-26T14:08:42.865Z,13.8
2024-02-26T14:09:51.788Z,13
2024-02-26T14:10:53.852Z,11.8